createdAt,value
2022-12-24T00:01:45.868Z,-5.40
2022-12-24T00:04:12.847Z,-5.40
2022-12-24T00:06:39.788Z,-5.40
2022-12-24T00:09:06.635Z,-5.50
2022-12-24T00:11:33.593Z,-5.50
2022-12-24T00:14:00.497Z,-5.50
2022-12-24T00:16:28.026Z,-5.50
2022-12-24T00:18:55.014Z,-5.50
2022-12-24T00:21:21.884Z,-5.50
2022-12-24T00:23:48.783Z,-5.50
2022-12-24T00:26:15.686Z,-5.40
2022-12-24T00:28:42.896Z,-5.40
2022-12-24T00:31:11.316Z,-5.50
2022-12-24T00:33:38.314Z,-5.50
2022-12-24T00:36:05.372Z,-5.60
2022-12-24T00:38:32.243Z,-5.60
2022-12-24T00:41:00.883Z,-5.70
2022-12-24T00:43:28.656Z,-5.80
2022-12-24T00:45:55.816Z,-5.80
2022-12-24T00:48:23.086Z,-5.80
2022-12-24T00:50:50.805Z,-5.70
2022-12-24T00:53:18.269Z,-5.70
2022-12-24T00:55:45.110Z,-5.80
2022-12-24T00:58:12.221Z,-5.70
2022-12-24T01:00:39.583Z,-5.80
2022-12-24T01:03:06.559Z,-5.80
2022-12-24T01:05:33.872Z,-5.70
2022-12-24T01:08:00.754Z,-5.80
2022-12-24T01:10:27.597Z,-5.80
2022-12-24T01:12:54.577Z,-5.70
2022-12-24T01:15:21.636Z,-5.80
2022-12-24T01:17:48.638Z,-5.80
2022-12-24T01:20:16.412Z,-5.80
2022-12-24T01:22:43.341Z,-5.80
2022-12-24T01:25:10.317Z,-5.80
2022-12-24T01:27:37.294Z,-5.90
2022-12-24T01:30:05.928Z,-5.90
2022-12-24T01:32:33.087Z,-6.00
2022-12-24T01:35:00.216Z,-5.90
2022-12-24T01:37:27.094Z,-5.90
2022-12-24T01:40:13.926Z,-5.90
2022-12-24T01:43:10.584Z,-5.90
2022-12-24T01:45:37.440Z,-5.90
2022-12-24T01:48:04.904Z,-6.00
2022-12-24T01:50:31.869Z,-5.90
2022-12-24T01:52:58.968Z,-5.90
2022-12-24T01:55:26.030Z,-6.00
2022-12-24T01:57:55.457Z,-6.00
2022-12-24T02:00:22.592Z,-6.00
2022-12-24T02:02:50.765Z,-6.00
2022-12-24T02:05:20.783Z,-6.00
2022-12-24T02:07:48.141Z,-6.00
2022-12-24T02:10:16.005Z,-6.10
2022-12-24T02:12:43.968Z,-6.20
2022-12-24T02:15:12.301Z,-6.10
2022-12-24T02:17:55.073Z,-6.00
2022-12-24T02:20:31.668Z,-6.10
2022-12-24T02:23:17.387Z,-6.10
2022-12-24T02:26:02.935Z,-6.00
2022-12-24T02:28:41.936Z,-6.00
2022-12-24T02:31:31.914Z,-6.10
2022-12-24T02:34:06.604Z,-6.20
2022-12-24T02:36:44.369Z,-6.20
2022-12-24T02:39:15.710Z,-6.10
2022-12-24T02:42:02.399Z,-6.10
2022-12-24T02:44:30.639Z,-6.10
2022-12-24T02:46:59.498Z,-6.20
2022-12-24T02:49:26.638Z,-6.20
2022-12-24T02:51:53.539Z,-6.20
2022-12-24T02:54:20.396Z,-6.30
2022-12-24T02:56:57.115Z,-6.30
2022-12-24T02:59:33.149Z,-6.30
2022-12-24T03:02:00.269Z,-6.20
2022-12-24T03:04:47.439Z,-6.10
2022-12-24T03:07:21.353Z,-6.20
2022-12-24T03:09:55.978Z,-6.20
2022-12-24T03:12:32.209Z,-6.20
2022-12-24T03:15:00.222Z,-6.20
2022-12-24T03:17:27.256Z,-6.20
2022-12-24T03:19:55.378Z,-6.20
2022-12-24T03:22:22.866Z,-6.20
2022-12-24T03:24:49.705Z,-6.20
2022-12-24T03:27:17.444Z,-6.20
2022-12-24T03:29:45.496Z,-6.20
2022-12-24T03:32:12.568Z,-6.20
2022-12-24T03:34:39.471Z,-6.30
2022-12-24T03:37:06.351Z,-6.30
2022-12-24T03:39:33.323Z,-6.20
2022-12-24T03:42:00.154Z,-6.30
2022-12-24T03:44:27.180Z,-6.30
2022-12-24T03:46:54.051Z,-6.30
2022-12-24T03:49:20.873Z,-6.40
2022-12-24T03:51:48.192Z,-6.40
2022-12-24T03:54:15.075Z,-6.30
2022-12-24T03:56:42.019Z,-6.40
2022-12-24T03:59:08.945Z,-6.40
2022-12-24T04:01:36.482Z,-6.50
2022-12-24T04:04:03.610Z,-6.40
2022-12-24T04:06:30.469Z,-6.40
2022-12-24T04:08:59.591Z,-6.50
2022-12-24T04:11:26.493Z,-6.40
2022-12-24T04:13:53.540Z,-6.40
2022-12-24T04:16:20.571Z,-6.40
2022-12-24T04:21:28.386Z,-6.40
2022-12-24T04:23:55.351Z,-6.60
2022-12-24T04:26:22.248Z,-6.60
2022-12-24T04:28:49.113Z,-6.60
2022-12-24T04:31:17.278Z,-6.70
2022-12-24T04:33:44.560Z,-6.70
2022-12-24T04:36:15.845Z,-6.70
2022-12-24T04:38:43.342Z,-6.80
2022-12-24T04:41:23.989Z,-6.80
2022-12-24T04:43:52.345Z,-6.80
2022-12-24T04:46:20.763Z,-6.70
2022-12-24T04:48:48.758Z,-6.60
2022-12-24T04:51:20.510Z,-6.70
2022-12-24T04:53:47.872Z,-6.60
2022-12-24T04:56:19.479Z,-6.50
2022-12-24T04:58:46.661Z,-6.70
2022-12-24T05:01:14.876Z,-6.70
2022-12-24T05:03:41.843Z,-6.60
2022-12-24T05:06:10.995Z,-6.70
2022-12-24T05:08:38.646Z,-6.70
2022-12-24T05:11:05.653Z,-6.70
2022-12-24T05:13:42.318Z,-6.70
2022-12-24T05:16:14.588Z,-6.70
2022-12-24T05:18:41.672Z,-6.70
2022-12-24T05:21:09.759Z,-6.70
2022-12-24T05:23:55.843Z,-6.70
2022-12-24T05:26:30.612Z,-6.70
2022-12-24T05:28:58.916Z,-6.70
2022-12-24T05:31:27.356Z,-6.70
2022-12-24T05:33:55.058Z,-6.70
2022-12-24T05:36:22.447Z,-6.80
2022-12-24T05:38:50.156Z,-6.80
2022-12-24T05:41:17.145Z,-6.80
2022-12-24T05:43:44.180Z,-6.80
2022-12-24T05:46:12.616Z,-6.80
2022-12-24T05:48:40.761Z,-6.80
2022-12-24T05:51:10.348Z,-6.80
2022-12-24T05:53:37.404Z,-6.70
2022-12-24T05:56:12.261Z,-6.70
2022-12-24T05:58:42.163Z,-6.80
2022-12-24T06:01:10.110Z,-6.80
2022-12-24T06:03:37.939Z,-6.80
2022-12-24T06:06:09.760Z,-6.80
2022-12-24T06:08:37.330Z,-6.80
2022-12-24T06:11:05.282Z,-6.70
2022-12-24T06:13:32.556Z,-6.90
2022-12-24T06:16:00.552Z,-6.90
2022-12-24T06:18:29.067Z,-6.80
2022-12-24T06:20:56.557Z,-6.80
2022-12-24T06:23:24.106Z,-6.90
2022-12-24T06:25:51.654Z,-6.90
2022-12-24T06:28:18.912Z,-6.90
2022-12-24T06:30:50.076Z,-6.90
2022-12-24T06:33:17.995Z,-7.00
2022-12-24T06:35:45.879Z,-6.90
2022-12-24T06:38:14.276Z,-6.90
2022-12-24T06:40:42.340Z,-6.90
2022-12-24T06:43:09.431Z,-6.90
2022-12-24T06:45:36.369Z,-7.00
2022-12-24T06:48:03.188Z,-7.00
2022-12-24T06:50:30.158Z,-7.00
2022-12-24T06:52:57.197Z,-7.00
2022-12-24T06:55:24.220Z,-7.00
2022-12-24T06:57:51.088Z,-7.00
2022-12-24T07:00:18.083Z,-7.00
2022-12-24T07:02:45.210Z,-6.90
2022-12-24T07:05:12.880Z,-6.90
2022-12-24T07:07:40.847Z,-7.00
2022-12-24T07:10:08.075Z,-7.00
2022-12-24T07:12:35.590Z,-7.00
2022-12-24T07:15:02.782Z,-6.90
2022-12-24T07:17:29.715Z,-7.00
2022-12-24T07:19:56.765Z,-7.00
2022-12-24T07:22:23.719Z,-7.00
2022-12-24T07:24:50.634Z,-7.00
2022-12-24T07:27:17.565Z,-7.00
2022-12-24T07:29:44.605Z,-7.00
2022-12-24T07:32:11.456Z,-7.00
2022-12-24T07:34:39.781Z,-7.00
2022-12-24T07:37:07.324Z,-7.00
2022-12-24T07:39:34.209Z,-7.00
2022-12-24T07:42:01.213Z,-7.00
2022-12-24T07:44:28.087Z,-6.90
2022-12-24T07:46:55.030Z,-6.90
2022-12-24T07:49:21.940Z,-6.90
2022-12-24T07:51:48.814Z,-7.00
2022-12-24T07:54:15.994Z,-7.00
2022-12-24T07:56:43.411Z,-7.00
2022-12-24T07:59:13.030Z,-7.10
2022-12-24T08:01:42.232Z,-7.00
2022-12-24T08:04:09.330Z,-7.10
2022-12-24T08:06:36.373Z,-7.10
2022-12-24T08:09:03.727Z,-7.00
2022-12-24T08:11:30.547Z,-7.00
2022-12-24T08:13:57.868Z,-7.10
2022-12-24T08:16:24.764Z,-7.10
2022-12-24T08:18:51.768Z,-7.10
2022-12-24T08:21:18.674Z,-7.10
2022-12-24T08:23:46.699Z,-7.00
2022-12-24T08:26:13.649Z,-7.00
2022-12-24T08:28:40.622Z,-7.00
2022-12-24T08:31:07.689Z,-7.00
2022-12-24T08:33:34.751Z,-6.90
2022-12-24T08:36:02.074Z,-6.90
2022-12-24T08:38:29.330Z,-6.90
2022-12-24T08:40:56.415Z,-6.90
2022-12-24T08:43:23.462Z,-6.90
2022-12-24T08:45:50.517Z,-6.90
2022-12-24T08:48:17.519Z,-6.80
2022-12-24T08:50:45.398Z,-6.80
2022-12-24T08:53:12.676Z,-6.90
2022-12-24T08:55:39.805Z,-6.90
2022-12-24T08:58:06.720Z,-6.90
2022-12-24T09:00:33.576Z,-6.90
2022-12-24T09:03:00.855Z,-6.90
2022-12-24T09:05:27.817Z,-6.80
2022-12-24T09:07:54.775Z,-6.70
2022-12-24T09:10:21.676Z,-6.70
2022-12-24T09:12:48.846Z,-6.60
2022-12-24T09:15:15.775Z,-6.70
2022-12-24T09:17:42.915Z,-6.60
2022-12-24T09:20:10.403Z,-6.50
2022-12-24T09:22:38.199Z,-6.40
2022-12-24T09:25:06.440Z,-6.50
2022-12-24T09:27:33.448Z,-6.50
2022-12-24T09:30:00.331Z,-6.50
2022-12-24T09:32:27.261Z,-6.40
2022-12-24T09:34:54.165Z,-6.40
2022-12-24T09:37:21.229Z,-6.40
2022-12-24T09:39:48.203Z,-6.40
2022-12-24T09:42:27.232Z,-6.30
2022-12-24T09:45:00.498Z,-6.40
2022-12-24T09:47:39.895Z,-6.20
2022-12-24T09:50:21.836Z,-6.00
2022-12-24T09:52:50.362Z,-5.90
2022-12-24T09:55:49.291Z,-5.90
2022-12-24T09:58:27.747Z,-5.90
2022-12-24T10:00:54.904Z,-5.70
2022-12-24T10:03:22.115Z,-5.70
2022-12-24T10:05:51.695Z,-5.70
2022-12-24T10:08:30.573Z,-5.70
2022-12-24T10:11:17.642Z,-5.60
2022-12-24T10:13:44.643Z,-5.50
2022-12-24T10:16:37.197Z,-5.50
2022-12-24T10:19:30.340Z,-5.40
2022-12-24T10:22:01.251Z,-5.30
2022-12-24T10:24:32.531Z,-5.10
2022-12-24T10:27:02.929Z,-5.00
2022-12-24T10:29:32.742Z,-4.90
2022-12-24T10:32:03.422Z,-4.90
2022-12-24T10:34:31.952Z,-4.90
2022-12-24T10:36:59.591Z,-4.90
2022-12-24T10:39:27.358Z,-4.80
2022-12-24T10:41:58.007Z,-4.80
2022-12-24T10:44:27.841Z,-4.70
2022-12-24T10:46:55.133Z,-4.70
2022-12-24T10:49:38.254Z,-4.60
2022-12-24T10:52:22.604Z,-4.70
2022-12-24T10:55:07.266Z,-4.60
2022-12-24T10:57:35.315Z,-4.60
2022-12-24T11:00:02.643Z,-4.70
2022-12-24T11:02:36.830Z,-4.60
2022-12-24T11:05:07.180Z,-4.60
2022-12-24T11:07:34.672Z,-4.50
2022-12-24T11:10:03.612Z,-4.60
2022-12-24T11:12:33.442Z,-4.50
2022-12-24T11:15:08.584Z,-4.40
2022-12-24T11:17:36.488Z,-4.40
2022-12-24T11:20:04.439Z,-4.40
2022-12-24T11:22:33.313Z,-4.20
2022-12-24T11:25:03.167Z,-4.20
2022-12-24T11:27:46.266Z,-4.20
2022-12-24T11:30:16.265Z,-4.20
2022-12-24T11:32:44.456Z,-4.30
2022-12-24T11:35:17.009Z,-4.30
2022-12-24T11:37:44.127Z,-4.20
2022-12-24T11:40:22.064Z,-4.20
2022-12-24T11:42:53.588Z,-4.20
2022-12-24T11:45:23.370Z,-4.20
2022-12-24T11:47:51.007Z,-4.10
2022-12-24T11:50:24.376Z,-4.10
2022-12-24T11:53:03.647Z,-4.10
2022-12-24T11:55:43.085Z,-4.10
2022-12-24T11:58:18.230Z,-4.20
2022-12-24T12:00:46.357Z,-4.10
2022-12-24T12:03:32.348Z,-4.10
2022-12-24T12:06:01.590Z,-4.10
2022-12-24T12:08:29.026Z,-3.90
2022-12-24T12:10:58.457Z,-3.90
2022-12-24T12:13:33.720Z,-4.00
2022-12-24T12:16:06.793Z,-3.90
2022-12-24T12:18:38.607Z,-4.00
2022-12-24T12:21:16.871Z,-4.00
2022-12-24T12:23:43.649Z,-4.00
2022-12-24T12:26:13.148Z,-3.90
2022-12-24T12:28:40.127Z,-3.90
2022-12-24T12:31:15.815Z,-3.90
2022-12-24T12:34:17.959Z,-3.80
2022-12-24T12:36:49.683Z,-3.80
2022-12-24T12:39:16.709Z,-3.80
2022-12-24T12:42:02.770Z,-3.80
2022-12-24T12:44:32.432Z,-3.80
2022-12-24T12:47:14.537Z,-3.80
2022-12-24T12:49:41.517Z,-3.80
2022-12-24T12:52:19.735Z,-3.70
2022-12-24T12:54:52.657Z,-3.70
2022-12-24T12:57:22.575Z,-3.70
2022-12-24T12:59:55.239Z,-3.70
2022-12-24T13:02:31.082Z,-3.70
2022-12-24T13:05:09.685Z,-3.70
2022-12-24T13:07:45.402Z,-3.70
2022-12-24T13:10:30.664Z,-3.70
2022-12-24T13:13:21.820Z,-3.70
2022-12-24T13:15:57.849Z,-3.70
2022-12-24T13:18:34.276Z,-3.70
2022-12-24T13:21:01.226Z,-3.70
2022-12-24T13:23:28.395Z,-3.70
2022-12-24T13:25:57.056Z,-3.70
2022-12-24T13:28:24.096Z,-3.70
2022-12-24T13:30:52.616Z,-3.60
2022-12-24T13:33:38.042Z,-3.60
2022-12-24T13:36:08.703Z,-3.60
2022-12-24T13:38:48.983Z,-3.60
2022-12-24T13:41:39.585Z,-3.70
2022-12-24T13:44:07.833Z,-3.70
2022-12-24T13:46:52.525Z,-3.70
2022-12-24T13:49:19.631Z,-3.80
2022-12-24T13:51:46.887Z,-3.90
2022-12-24T13:54:14.968Z,-3.90
2022-12-24T13:56:42.412Z,-3.90
2022-12-24T13:59:21.351Z,-4.00
2022-12-24T14:01:48.983Z,-4.00
2022-12-24T14:04:23.648Z,-4.10
2022-12-24T14:06:52.197Z,-4.10
2022-12-24T14:09:20.575Z,-4.20
2022-12-24T14:11:53.494Z,-4.20
2022-12-24T14:14:26.994Z,-4.20
2022-12-24T14:16:55.250Z,-4.30
2022-12-24T14:19:23.859Z,-4.30
2022-12-24T14:21:57.731Z,-4.30
2022-12-24T14:24:31.830Z,-4.30
2022-12-24T14:27:00.040Z,-4.30
2022-12-24T14:29:28.853Z,-4.30
2022-12-24T14:31:57.136Z,-4.30
2022-12-24T14:34:24.383Z,-4.30
2022-12-24T14:36:52.478Z,-4.30
2022-12-24T14:39:31.448Z,-4.30
2022-12-24T14:42:08.253Z,-4.30
2022-12-24T14:44:59.497Z,-4.40
2022-12-24T14:47:29.513Z,-4.40
2022-12-24T14:49:59.545Z,-4.40
2022-12-24T14:53:07.337Z,-4.50
2022-12-24T14:55:36.502Z,-4.40
2022-12-24T14:58:18.735Z,-4.40
2022-12-24T15:00:45.742Z,-4.40
2022-12-24T15:03:14.845Z,-4.40
2022-12-24T15:05:42.624Z,-4.50
2022-12-24T15:08:17.955Z,-4.50
2022-12-24T15:10:46.641Z,-4.40
2022-12-24T15:13:26.482Z,-4.40
2022-12-24T15:15:54.381Z,-4.50
2022-12-24T15:18:23.077Z,-4.60
2022-12-24T15:20:51.933Z,-4.60
2022-12-24T15:23:22.560Z,-4.60
2022-12-24T15:25:49.447Z,-4.70
2022-12-24T15:28:20.814Z,-4.60
2022-12-24T15:30:48.184Z,-4.70
2022-12-24T15:33:15.666Z,-4.70
2022-12-24T15:35:42.466Z,-4.70
2022-12-24T15:38:23.156Z,-4.70
2022-12-24T15:40:50.275Z,-4.50
2022-12-24T15:43:17.605Z,-4.60
2022-12-24T15:45:51.607Z,-4.50
2022-12-24T15:48:21.332Z,-4.40
2022-12-24T15:50:49.427Z,-4.40
2022-12-24T15:53:22.065Z,-4.30
2022-12-24T15:56:04.729Z,-4.30
2022-12-24T15:58:34.320Z,-4.40
2022-12-24T16:01:01.634Z,-4.40
2022-12-24T16:03:29.127Z,-4.40
2022-12-24T16:06:03.719Z,-4.40
2022-12-24T16:08:39.099Z,-4.40
2022-12-24T16:11:05.967Z,-4.40
2022-12-24T16:13:37.964Z,-4.40
2022-12-24T16:16:15.384Z,-4.40
2022-12-24T16:18:56.215Z,-4.40
2022-12-24T16:21:29.399Z,-4.40
2022-12-24T16:23:57.799Z,-4.40
2022-12-24T16:26:24.782Z,-4.30
2022-12-24T16:28:51.671Z,-4.30
2022-12-24T16:31:20.167Z,-4.40
2022-12-24T16:33:47.490Z,-4.40
2022-12-24T16:36:14.729Z,-4.40
2022-12-24T16:39:00.105Z,-4.50
2022-12-24T16:41:26.957Z,-4.40
2022-12-24T16:43:53.815Z,-4.40
2022-12-24T16:46:20.763Z,-4.40
2022-12-24T16:48:48.722Z,-4.30
2022-12-24T16:51:15.652Z,-4.40
2022-12-24T16:53:42.853Z,-4.30
2022-12-24T16:56:09.796Z,-4.40
2022-12-24T16:58:36.751Z,-4.50
2022-12-24T17:01:07.281Z,-4.50
2022-12-24T17:03:35.820Z,-4.60
2022-12-24T17:06:04.866Z,-4.60
2022-12-24T17:08:31.676Z,-4.60
2022-12-24T17:10:58.562Z,-4.70
2022-12-24T17:13:25.362Z,-4.70
2022-12-24T17:15:52.528Z,-4.70
2022-12-24T17:18:19.373Z,-4.60
2022-12-24T17:20:46.240Z,-4.70
2022-12-24T17:23:13.245Z,-4.80
2022-12-24T17:25:40.105Z,-4.80
2022-12-24T17:28:07.092Z,-4.80
2022-12-24T17:30:34.033Z,-4.80
2022-12-24T17:33:00.977Z,-4.90
2022-12-24T17:35:27.789Z,-5.00
2022-12-24T17:37:54.643Z,-5.00
2022-12-24T17:40:21.502Z,-4.90
2022-12-24T17:42:48.480Z,-4.80
2022-12-24T17:45:15.566Z,-4.80
2022-12-24T17:47:42.410Z,-4.80
2022-12-24T17:50:09.532Z,-4.80
2022-12-24T17:52:36.530Z,-4.80
2022-12-24T17:55:03.533Z,-4.80
2022-12-24T17:57:30.388Z,-4.80
2022-12-24T17:59:57.594Z,-4.80
2022-12-24T18:02:24.573Z,-4.80
2022-12-24T18:04:51.635Z,-4.80
2022-12-24T18:07:18.565Z,-4.80
2022-12-24T18:09:46.077Z,-4.80
2022-12-24T18:12:13.419Z,-4.70
2022-12-24T18:14:40.277Z,-4.60
2022-12-24T18:17:07.134Z,-4.60
2022-12-24T18:19:34.996Z,-4.60
2022-12-24T18:22:02.096Z,-4.60
2022-12-24T18:24:29.126Z,-4.60
2022-12-24T18:26:56.762Z,-4.50
2022-12-24T18:29:23.693Z,-4.60
2022-12-24T18:31:51.570Z,-4.60
2022-12-24T18:34:18.511Z,-4.60
2022-12-24T18:36:49.733Z,-4.60
2022-12-24T18:39:21.534Z,-4.60
2022-12-24T18:41:49.356Z,-4.50
2022-12-24T18:44:22.551Z,-4.60
2022-12-24T18:46:51.690Z,-4.60
2022-12-24T18:49:18.581Z,-4.60
2022-12-24T18:51:45.363Z,-4.60
2022-12-24T18:54:12.263Z,-4.60
2022-12-24T18:56:39.249Z,-4.60
2022-12-24T18:59:06.105Z,-4.60
2022-12-24T19:01:34.331Z,-4.70
2022-12-24T19:04:01.756Z,-4.70
2022-12-24T19:06:28.687Z,-4.60
2022-12-24T19:08:58.211Z,-4.70
2022-12-24T19:11:27.789Z,-4.70
2022-12-24T19:13:54.930Z,-4.70
2022-12-24T19:16:22.404Z,-4.70
2022-12-24T19:18:49.586Z,-4.70
2022-12-24T19:21:17.687Z,-4.70
2022-12-24T19:23:45.423Z,-4.60
2022-12-24T19:26:13.225Z,-4.70
2022-12-24T19:28:40.431Z,-4.60
2022-12-24T19:31:09.210Z,-4.70
2022-12-24T19:33:42.154Z,-4.80
2022-12-24T19:36:10.934Z,-4.80
2022-12-24T19:38:37.996Z,-4.90
2022-12-24T19:41:07.064Z,-4.90
2022-12-24T19:43:36.356Z,-4.90
2022-12-24T19:46:03.295Z,-4.80
2022-12-24T19:48:30.550Z,-4.80
2022-12-24T19:51:01.603Z,-4.90
2022-12-24T19:53:28.695Z,-5.00
2022-12-24T19:55:55.747Z,-5.00
2022-12-24T19:58:22.641Z,-5.00
2022-12-24T20:00:49.765Z,-4.90
2022-12-24T20:03:16.910Z,-4.90
2022-12-24T20:05:45.089Z,-4.80
2022-12-24T20:08:12.223Z,-4.70
2022-12-24T20:10:43.918Z,-4.70
2022-12-24T20:13:11.543Z,-4.70
2022-12-24T20:15:40.148Z,-4.60
2022-12-24T20:18:07.379Z,-4.70
2022-12-24T20:20:34.773Z,-4.70
2022-12-24T20:23:01.808Z,-4.70
2022-12-24T20:25:28.667Z,-4.80
2022-12-24T20:27:55.719Z,-4.80
2022-12-24T20:30:22.953Z,-4.80
2022-12-24T20:32:52.934Z,-4.80
2022-12-24T20:35:19.814Z,-4.70
2022-12-24T20:37:46.703Z,-4.70
2022-12-24T20:40:13.966Z,-4.70
2022-12-24T20:42:41.236Z,-4.70
2022-12-24T20:45:08.346Z,-4.70
2022-12-24T20:47:35.309Z,-4.70
2022-12-24T20:50:02.724Z,-4.70
2022-12-24T20:52:29.600Z,-4.70
2022-12-24T20:54:56.457Z,-4.70
2022-12-24T20:57:27.747Z,-4.70
2022-12-24T20:59:56.988Z,-4.70
2022-12-24T21:02:25.165Z,-4.70
2022-12-24T21:04:58.028Z,-4.70
2022-12-24T21:07:28.549Z,-4.70
2022-12-24T21:09:55.397Z,-4.70
2022-12-24T21:12:40.604Z,-4.70
2022-12-24T21:15:07.566Z,-4.80
2022-12-24T21:17:34.423Z,-4.70
2022-12-24T21:20:01.368Z,-4.70
2022-12-24T21:22:28.438Z,-4.70
2022-12-24T21:24:55.253Z,-4.70
2022-12-24T21:27:22.093Z,-4.70
2022-12-24T21:29:49.087Z,-4.70
2022-12-24T21:32:16.055Z,-4.70
2022-12-24T21:34:42.929Z,-4.60
2022-12-24T21:37:09.855Z,-4.60
2022-12-24T21:39:36.697Z,-4.60
2022-12-24T21:42:03.612Z,-4.60
2022-12-24T21:44:30.529Z,-4.60
2022-12-24T21:46:57.464Z,-4.60
2022-12-24T21:49:43.009Z,-4.60
2022-12-24T21:52:09.800Z,-4.60
2022-12-24T21:54:36.651Z,-4.60
2022-12-24T21:57:23.217Z,-4.60
2022-12-24T21:59:52.674Z,-4.70
2022-12-24T22:02:20.311Z,-4.70
2022-12-24T22:04:47.289Z,-4.70
2022-12-24T22:07:40.128Z,-4.70
2022-12-24T22:10:26.555Z,-4.70
2022-12-24T22:12:53.876Z,-4.70
2022-12-24T22:15:20.797Z,-4.80
2022-12-24T22:17:47.790Z,-4.70
2022-12-24T22:20:14.714Z,-4.70
2022-12-24T22:22:41.539Z,-4.80
2022-12-24T22:25:08.690Z,-4.80
2022-12-24T22:27:35.559Z,-4.90
2022-12-24T22:30:02.407Z,-4.90
2022-12-24T22:32:29.264Z,-4.90
2022-12-24T22:34:56.127Z,-4.90
2022-12-24T22:37:23.010Z,-5.00
2022-12-24T22:39:49.840Z,-4.90
2022-12-24T22:42:17.229Z,-4.90
2022-12-24T22:44:44.123Z,-5.00
2022-12-24T22:47:11.001Z,-5.00
2022-12-24T22:49:38.102Z,-5.00
2022-12-24T22:52:05.060Z,-5.10
2022-12-24T22:54:32.392Z,-5.00
2022-12-24T22:56:59.620Z,-5.00
2022-12-24T22:59:26.632Z,-4.90
2022-12-24T23:01:53.845Z,-4.90
2022-12-24T23:04:21.365Z,-4.90
2022-12-24T23:06:48.706Z,-5.00
2022-12-24T23:09:18.533Z,-4.90
2022-12-24T23:11:46.008Z,-5.00
2022-12-24T23:14:36.020Z,-5.00
2022-12-24T23:17:03.116Z,-4.90
2022-12-24T23:19:31.447Z,-5.10
2022-12-24T23:21:58.658Z,-5.10
2022-12-24T23:24:25.577Z,-5.10
2022-12-24T23:26:52.532Z,-5.00
2022-12-24T23:29:19.457Z,-5.00
2022-12-24T23:31:46.324Z,-5.00
2022-12-24T23:34:17.124Z,-4.90
2022-12-24T23:36:44.443Z,-4.90
2022-12-24T23:39:11.634Z,-5.00
2022-12-24T23:41:38.819Z,-5.00
2022-12-24T23:44:05.881Z,-5.00
2022-12-24T23:46:32.985Z,-5.00
2022-12-24T23:49:08.578Z,-5.00
2022-12-24T23:51:35.438Z,-4.90
2022-12-24T23:54:02.443Z,-4.80
2022-12-24T23:56:29.317Z,-4.80
2022-12-24T23:58:56.151Z,-4.90
